sensor_id;sensor_type;location;lat;lon;timestamp;P1;durP1;ratioP1;P2;durP2;ratioP2
27794;SDS011;15176;50.844;4.412;2022-11-02T00:01:21;6.30;;;1.13;;
27794;SDS011;15176;50.844;4.412;2022-11-02T00:03:50;9.00;;;1.60;;
27794;SDS011;15176;50.844;4.412;2022-11-02T00:06:15;6.82;;;1.60;;
27794;SDS011;15176;50.844;4.412;2022-11-02T00:08:41;8.45;;;1.30;;
27794;SDS011;15176;50.844;4.412;2022-11-02T00:11:07;8.38;;;1.33;;
27794;SDS011;15176;50.844;4.412;2022-11-02T00:13:32;7.35;;;1.23;;
27794;SDS011;15176;50.844;4.412;2022-11-02T00:16:02;6.90;;;1.27;;
27794;SDS011;15176;50.844;4.412;2022-11-02T00:18:29;9.77;;;1.60;;
27794;SDS011;15176;50.844;4.412;2022-11-02T00:20:56;9.50;;;1.45;;
27794;SDS011;15176;50.844;4.412;2022-11-02T00:23:22;9.73;;;1.40;;
27794;SDS011;15176;50.844;4.412;2022-11-02T00:25:48;11.40;;;1.45;;
27794;SDS011;15176;50.844;4.412;2022-11-02T00:28:15;14.93;;;2.10;;
27794;SDS011;15176;50.844;4.412;2022-11-02T00:30:41;10.07;;;1.85;;
27794;SDS011;15176;50.844;4.412;2022-11-02T00:33:08;9.30;;;1.67;;
27794;SDS011;15176;50.844;4.412;2022-11-02T00:35:34;9.55;;;2.00;;
27794;SDS011;15176;50.844;4.412;2022-11-02T00:38:00;11.02;;;1.40;;
27794;SDS011;15176;50.844;4.412;2022-11-02T00:40:26;11.85;;;1.83;;
27794;SDS011;15176;50.844;4.412;2022-11-02T00:42:52;9.15;;;1.50;;
27794;SDS011;15176;50.844;4.412;2022-11-02T00:45:18;8.20;;;1.80;;
27794;SDS011;15176;50.844;4.412;2022-11-02T00:47:43;8.73;;;1.75;;
27794;SDS011;15176;50.844;4.412;2022-11-02T00:50:09;9.77;;;1.70;;
27794;SDS011;15176;50.844;4.412;2022-11-02T00:52:37;8.55;;;1.55;;
27794;SDS011;15176;50.844;4.412;2022-11-02T00:55:04;12.40;;;1.60;;
27794;SDS011;15176;50.844;4.412;2022-11-02T00:57:30;9.50;;;1.70;;
27794;SDS011;15176;50.844;4.412;2022-11-02T00:59:56;10.18;;;1.55;;
27794;SDS011;15176;50.844;4.412;2022-11-02T01:02:22;8.85;;;1.50;;
27794;SDS011;15176;50.844;4.412;2022-11-02T01:04:47;9.30;;;1.70;;
27794;SDS011;15176;50.844;4.412;2022-11-02T01:07:13;11.48;;;1.45;;
27794;SDS011;15176;50.844;4.412;2022-11-02T01:09:39;8.98;;;1.38;;
27794;SDS011;15176;50.844;4.412;2022-11-02T01:12:05;8.23;;;1.38;;
27794;SDS011;15176;50.844;4.412;2022-11-02T01:14:30;9.38;;;1.80;;
27794;SDS011;15176;50.844;4.412;2022-11-02T01:16:59;9.88;;;1.90;;
27794;SDS011;15176;50.844;4.412;2022-11-02T01:19:25;10.48;;;1.60;;
27794;SDS011;15176;50.844;4.412;2022-11-02T01:21:51;5.95;;;1.23;;
27794;SDS011;15176;50.844;4.412;2022-11-02T01:24:16;8.63;;;1.40;;
27794;SDS011;15176;50.844;4.412;2022-11-02T01:26:42;6.50;;;1.33;;
27794;SDS011;15176;50.844;4.412;2022-11-02T01:29:07;10.68;;;1.75;;
27794;SDS011;15176;50.844;4.412;2022-11-02T01:31:33;11.43;;;1.55;;
27794;SDS011;15176;50.844;4.412;2022-11-02T01:33:59;8.77;;;1.40;;
27794;SDS011;15176;50.844;4.412;2022-11-02T01:36:24;8.82;;;1.42;;
27794;SDS011;15176;50.844;4.412;2022-11-02T01:38:50;10.52;;;1.40;;
27794;SDS011;15176;50.844;4.412;2022-11-02T01:41:16;10.65;;;1.25;;
27794;SDS011;15176;50.844;4.412;2022-11-02T01:43:43;9.70;;;1.42;;
27794;SDS011;15176;50.844;4.412;2022-11-02T01:48:38;8.38;;;1.73;;
27794;SDS011;15176;50.844;4.412;2022-11-02T01:51:05;9.57;;;1.77;;
27794;SDS011;15176;50.844;4.412;2022-11-02T01:53:36;8.85;;;1.38;;
27794;SDS011;15176;50.844;4.412;2022-11-02T01:56:06;9.13;;;1.60;;
27794;SDS011;15176;50.844;4.412;2022-11-02T01:58:36;9.57;;;1.70;;
27794;SDS011;15176;50.844;4.412;2022-11-02T02:01:02;13.77;;;1.80;;
27794;SDS011;15176;50.844;4.412;2022-11-02T02:03:29;8.30;;;1.60;;
27794;SDS011;15176;50.844;4.412;2022-11-02T02:06:01;8.68;;;1.33;;
27794;SDS011;15176;50.844;4.412;2022-11-02T02:08:30;9.07;;;1.50;;
27794;SDS011;15176;50.844;4.412;2022-11-02T02:10:57;11.40;;;1.30;;
27794;SDS011;15176;50.844;4.412;2022-11-02T02:13:23;11.73;;;1.50;;
27794;SDS011;15176;50.844;4.412;2022-11-02T02:15:58;7.97;;;1.73;;
27794;SDS011;15176;50.844;4.412;2022-11-02T02:18:54;9.52;;;1.67;;
27794;SDS011;15176;50.844;4.412;2022-11-02T02:24:19;8.23;;;1.60;;
27794;SDS011;15176;50.844;4.412;2022-11-02T02:27:17;10.65;;;1.80;;
27794;SDS011;15176;50.844;4.412;2022-11-02T02:29:51;10.98;;;1.63;;
27794;SDS011;15176;50.844;4.412;2022-11-02T02:37:32;14.80;;;2.13;;
27794;SDS011;15176;50.844;4.412;2022-11-02T02:40:25;8.75;;;1.50;;
27794;SDS011;15176;50.844;4.412;2022-11-02T02:43:06;6.72;;;1.40;;
27794;SDS011;15176;50.844;4.412;2022-11-02T02:48:11;9.15;;;1.77;;
27794;SDS011;15176;50.844;4.412;2022-11-02T02:50:50;14.07;;;2.17;;
27794;SDS011;15176;50.844;4.412;2022-11-02T02:53:32;9.48;;;1.42;;
27794;SDS011;15176;50.844;4.412;2022-11-02T02:56:02;9.93;;;1.63;;
27794;SDS011;15176;50.844;4.412;2022-11-02T02:58:31;14.00;;;2.15;;
27794;SDS011;15176;50.844;4.412;2022-11-02T03:01:12;14.45;;;1.90;;
27794;SDS011;15176;50.844;4.412;2022-11-02T03:03:40;12.25;;;2.22;;
27794;SDS011;15176;50.844;4.412;2022-11-02T03:08:56;7.28;;;1.42;;
27794;SDS011;15176;50.844;4.412;2022-11-02T03:30:56;12.90;;;1.73;;
27794;SDS011;15176;50.844;4.412;2022-11-02T03:33:30;13.13;;;1.63;;
27794;SDS011;15176;50.844;4.412;2022-11-02T03:38:31;13.00;;;1.73;;
27794;SDS011;15176;50.844;4.412;2022-11-02T03:41:02;10.38;;;1.60;;
27794;SDS011;15176;50.844;4.412;2022-11-02T03:43:31;10.10;;;1.77;;
27794;SDS011;15176;50.844;4.412;2022-11-02T03:45:59;11.48;;;1.73;;
27794;SDS011;15176;50.844;4.412;2022-11-02T03:48:31;11.85;;;2.22;;
27794;SDS011;15176;50.844;4.412;2022-11-02T03:51:11;12.57;;;2.05;;
27794;SDS011;15176;50.844;4.412;2022-11-02T03:56:21;6.15;;;1.58;;
27794;SDS011;15176;50.844;4.412;2022-11-02T03:58:53;11.85;;;1.83;;
27794;SDS011;15176;50.844;4.412;2022-11-02T04:01:20;13.32;;;2.28;;
27794;SDS011;15176;50.844;4.412;2022-11-02T04:03:47;9.35;;;1.92;;
27794;SDS011;15176;50.844;4.412;2022-11-02T04:06:13;12.48;;;1.50;;
27794;SDS011;15176;50.844;4.412;2022-11-02T04:08:41;14.68;;;2.03;;
27794;SDS011;15176;50.844;4.412;2022-11-02T04:11:08;8.00;;;1.70;;
27794;SDS011;15176;50.844;4.412;2022-11-02T04:13:53;14.60;;;2.03;;
27794;SDS011;15176;50.844;4.412;2022-11-02T04:16:37;14.35;;;1.88;;
27794;SDS011;15176;50.844;4.412;2022-11-02T04:19:03;16.15;;;2.40;;
27794;SDS011;15176;50.844;4.412;2022-11-02T04:21:48;10.77;;;1.63;;
27794;SDS011;15176;50.844;4.412;2022-11-02T04:24:33;11.55;;;1.83;;
27794;SDS011;15176;50.844;4.412;2022-11-02T04:27:17;14.70;;;2.00;;
27794;SDS011;15176;50.844;4.412;2022-11-02T04:29:43;10.73;;;1.70;;
27794;SDS011;15176;50.844;4.412;2022-11-02T04:32:09;16.85;;;1.92;;
27794;SDS011;15176;50.844;4.412;2022-11-02T04:34:34;11.20;;;1.90;;
27794;SDS011;15176;50.844;4.412;2022-11-02T04:37:00;11.20;;;1.63;;
27794;SDS011;15176;50.844;4.412;2022-11-02T04:39:46;14.45;;;1.90;;
27794;SDS011;15176;50.844;4.412;2022-11-02T04:42:11;13.45;;;1.90;;
27794;SDS011;15176;50.844;4.412;2022-11-02T04:44:37;16.88;;;2.17;;
27794;SDS011;15176;50.844;4.412;2022-11-02T04:47:03;12.02;;;2.00;;
27794;SDS011;15176;50.844;4.412;2022-11-02T04:49:28;12.57;;;2.20;;
27794;SDS011;15176;50.844;4.412;2022-11-02T04:51:54;12.07;;;1.70;;
27794;SDS011;15176;50.844;4.412;2022-11-02T04:54:20;16.75;;;2.13;;
27794;SDS011;15176;50.844;4.412;2022-11-02T04:56:46;11.05;;;1.80;;
27794;SDS011;15176;50.844;4.412;2022-11-02T04:59:12;10.55;;;1.75;;
27794;SDS011;15176;50.844;4.412;2022-11-02T05:01:37;13.45;;;1.67;;
27794;SDS011;15176;50.844;4.412;2022-11-02T05:04:03;13.45;;;2.05;;
27794;SDS011;15176;50.844;4.412;2022-11-02T05:06:29;9.05;;;1.70;;
27794;SDS011;15176;50.844;4.412;2022-11-02T05:08:55;9.95;;;2.15;;
27794;SDS011;15176;50.844;4.412;2022-11-02T05:11:20;11.57;;;1.67;;
27794;SDS011;15176;50.844;4.412;2022-11-02T05:13:48;11.50;;;1.75;;
27794;SDS011;15176;50.844;4.412;2022-11-02T05:16:15;16.20;;;2.78;;
27794;SDS011;15176;50.844;4.412;2022-11-02T05:18:41;15.30;;;2.25;;
27794;SDS011;15176;50.844;4.412;2022-11-02T05:21:07;14.50;;;1.92;;
27794;SDS011;15176;50.844;4.412;2022-11-02T05:23:34;10.93;;;1.50;;
27794;SDS011;15176;50.844;4.412;2022-11-02T05:26:00;10.18;;;2.15;;
27794;SDS011;15176;50.844;4.412;2022-11-02T05:28:28;14.77;;;2.40;;
27794;SDS011;15176;50.844;4.412;2022-11-02T05:30:56;13.65;;;2.00;;
27794;SDS011;15176;50.844;4.412;2022-11-02T05:33:23;14.18;;;1.95;;
27794;SDS011;15176;50.844;4.412;2022-11-02T05:35:49;18.83;;;2.13;;
27794;SDS011;15176;50.844;4.412;2022-11-02T05:38:15;10.57;;;1.83;;
27794;SDS011;15176;50.844;4.412;2022-11-02T05:40:42;13.52;;;2.22;;
27794;SDS011;15176;50.844;4.412;2022-11-02T05:43:08;14.55;;;2.03;;
27794;SDS011;15176;50.844;4.412;2022-11-02T05:45:34;16.13;;;2.13;;
27794;SDS011;15176;50.844;4.412;2022-11-02T05:48:03;15.68;;;2.20;;
27794;SDS011;15176;50.844;4.412;2022-11-02T05:50:32;13.57;;;2.10;;
27794;SDS011;15176;50.844;4.412;2022-11-02T05:52:58;13.35;;;2.22;;
27794;SDS011;15176;50.844;4.412;2022-11-02T05:55:23;11.57;;;2.10;;
27794;SDS011;15176;50.844;4.412;2022-11-02T05:57:50;15.65;;;1.90;;
27794;SDS011;15176;50.844;4.412;2022-11-02T06:00:17;13.68;;;2.03;;
27794;SDS011;15176;50.844;4.412;2022-11-02T06:02:43;11.90;;;2.40;;
27794;SDS011;15176;50.844;4.412;2022-11-02T06:05:08;15.77;;;2.30;;
27794;SDS011;15176;50.844;4.412;2022-11-02T06:07:34;15.65;;;2.38;;
27794;SDS011;15176;50.844;4.412;2022-11-02T06:10:00;13.13;;;1.77;;
27794;SDS011;15176;50.844;4.412;2022-11-02T06:12:27;18.27;;;2.33;;
27794;SDS011;15176;50.844;4.412;2022-11-02T06:14:52;17.17;;;2.60;;
27794;SDS011;15176;50.844;4.412;2022-11-02T06:17:18;15.43;;;2.60;;
27794;SDS011;15176;50.844;4.412;2022-11-02T06:19:44;14.48;;;2.88;;
27794;SDS011;15176;50.844;4.412;2022-11-02T06:22:10;14.80;;;3.00;;
27794;SDS011;15176;50.844;4.412;2022-11-02T06:24:36;12.50;;;2.35;;
27794;SDS011;15176;50.844;4.412;2022-11-02T06:27:02;14.45;;;2.28;;
27794;SDS011;15176;50.844;4.412;2022-11-02T06:29:27;14.45;;;2.67;;
27794;SDS011;15176;50.844;4.412;2022-11-02T06:31:53;14.35;;;2.17;;
27794;SDS011;15176;50.844;4.412;2022-11-02T06:34:19;13.85;;;2.10;;
27794;SDS011;15176;50.844;4.412;2022-11-02T06:36:45;17.52;;;2.70;;
27794;SDS011;15176;50.844;4.412;2022-11-02T06:39:10;11.80;;;2.20;;
27794;SDS011;15176;50.844;4.412;2022-11-02T06:41:36;16.80;;;2.38;;
27794;SDS011;15176;50.844;4.412;2022-11-02T06:44:01;14.32;;;2.75;;
27794;SDS011;15176;50.844;4.412;2022-11-02T06:46:31;16.63;;;2.58;;
27794;SDS011;15176;50.844;4.412;2022-11-02T06:48:56;20.48;;;3.13;;
27794;SDS011;15176;50.844;4.412;2022-11-02T06:51:22;17.52;;;2.42;;
27794;SDS011;15176;50.844;4.412;2022-11-02T06:53:49;13.43;;;2.08;;
27794;SDS011;15176;50.844;4.412;2022-11-02T06:56:15;16.38;;;2.60;;
27794;SDS011;15176;50.844;4.412;2022-11-02T06:58:41;21.60;;;2.70;;
27794;SDS011;15176;50.844;4.412;2022-11-02T07:01:12;18.33;;;2.58;;
27794;SDS011;15176;50.844;4.412;2022-11-02T07:03:39;19.13;;;2.75;;
27794;SDS011;15176;50.844;4.412;2022-11-02T07:06:05;19.55;;;2.90;;
27794;SDS011;15176;50.844;4.412;2022-11-02T07:08:31;20.95;;;3.00;;
27794;SDS011;15176;50.844;4.412;2022-11-02T07:10:57;17.77;;;2.45;;
27794;SDS011;15176;50.844;4.412;2022-11-02T07:13:23;17.63;;;2.72;;
27794;SDS011;15176;50.844;4.412;2022-11-02T07:15:52;18.38;;;2.65;;
27794;SDS011;15176;50.844;4.412;2022-11-02T07:18:18;15.55;;;2.80;;
27794;SDS011;15176;50.844;4.412;2022-11-02T07:20:44;20.10;;;2.65;;
27794;SDS011;15176;50.844;4.412;2022-11-02T07:23:10;22.42;;;2.90;;
27794;SDS011;15176;50.844;4.412;2022-11-02T07:25:36;15.13;;;2.47;;
27794;SDS011;15176;50.844;4.412;2022-11-02T07:28:02;13.85;;;2.42;;
27794;SDS011;15176;50.844;4.412;2022-11-02T07:30:30;19.80;;;2.47;;
27794;SDS011;15176;50.844;4.412;2022-11-02T07:32:57;14.63;;;3.30;;
27794;SDS011;15176;50.844;4.412;2022-11-02T07:35:23;16.08;;;2.30;;
27794;SDS011;15176;50.844;4.412;2022-11-02T07:37:53;15.25;;;2.65;;
27794;SDS011;15176;50.844;4.412;2022-11-02T07:40:23;15.68;;;2.45;;
27794;SDS011;15176;50.844;4.412;2022-11-02T07:42:49;15.20;;;2.45;;
27794;SDS011;15176;50.844;4.412;2022-11-02T07:45:15;17.98;;;2.55;;
27794;SDS011;15176;50.844;4.412;2022-11-02T07:47:41;19.13;;;2.80;;
27794;SDS011;15176;50.844;4.412;2022-11-02T07:50:14;17.27;;;2.47;;
27794;SDS011;15176;50.844;4.412;2022-11-02T07:52:46;22.65;;;2.80;;
27794;SDS011;15176;50.844;4.412;2022-11-02T07:55:14;18.98;;;2.40;;
27794;SDS011;15176;50.844;4.412;2022-11-02T07:57:41;22.80;;;2.67;;
27794;SDS011;15176;50.844;4.412;2022-11-02T08:00:08;21.88;;;2.80;;
27794;SDS011;15176;50.844;4.412;2022-11-02T08:02:35;21.20;;;3.05;;
27794;SDS011;15176;50.844;4.412;2022-11-02T08:05:02;17.58;;;2.95;;
27794;SDS011;15176;50.844;4.412;2022-11-02T08:07:28;22.02;;;2.78;;
27794;SDS011;15176;50.844;4.412;2022-11-02T08:09:54;19.45;;;3.08;;
27794;SDS011;15176;50.844;4.412;2022-11-02T08:12:20;15.82;;;2.75;;
27794;SDS011;15176;50.844;4.412;2022-11-02T08:14:46;19.48;;;2.75;;
27794;SDS011;15176;50.844;4.412;2022-11-02T08:17:11;18.13;;;2.75;;
27794;SDS011;15176;50.844;4.412;2022-11-02T08:19:37;17.77;;;2.83;;
27794;SDS011;15176;50.844;4.412;2022-11-02T08:22:03;18.00;;;2.60;;
27794;SDS011;15176;50.844;4.412;2022-11-02T08:24:29;21.95;;;2.75;;
27794;SDS011;15176;50.844;4.412;2022-11-02T08:26:54;18.95;;;3.05;;
27794;SDS011;15176;50.844;4.412;2022-11-02T08:29:20;17.73;;;2.80;;
27794;SDS011;15176;50.844;4.412;2022-11-02T08:31:46;20.98;;;3.05;;
27794;SDS011;15176;50.844;4.412;2022-11-02T08:34:12;18.13;;;2.80;;
27794;SDS011;15176;50.844;4.412;2022-11-02T08:36:38;16.10;;;2.85;;
27794;SDS011;15176;50.844;4.412;2022-11-02T08:39:03;20.10;;;2.70;;
27794;SDS011;15176;50.844;4.412;2022-11-02T08:41:29;17.80;;;3.25;;
27794;SDS011;15176;50.844;4.412;2022-11-02T08:43:55;18.98;;;3.10;;
27794;SDS011;15176;50.844;4.412;2022-11-02T08:46:21;20.50;;;2.92;;
27794;SDS011;15176;50.844;4.412;2022-11-02T08:48:47;22.80;;;3.78;;
27794;SDS011;15176;50.844;4.412;2022-11-02T08:51:13;15.18;;;2.50;;
27794;SDS011;15176;50.844;4.412;2022-11-02T08:53:39;22.92;;;2.60;;
27794;SDS011;15176;50.844;4.412;2022-11-02T08:56:05;16.65;;;2.88;;
27794;SDS011;15176;50.844;4.412;2022-11-02T08:58:31;20.75;;;2.70;;
27794;SDS011;15176;50.844;4.412;2022-11-02T09:00:57;14.88;;;2.80;;
27794;SDS011;15176;50.844;4.412;2022-11-02T09:03:23;21.73;;;2.75;;
27794;SDS011;15176;50.844;4.412;2022-11-02T09:05:49;16.75;;;2.97;;
27794;SDS011;15176;50.844;4.412;2022-11-02T09:08:16;24.23;;;4.95;;
27794;SDS011;15176;50.844;4.412;2022-11-02T09:10:43;16.55;;;3.08;;
27794;SDS011;15176;50.844;4.412;2022-11-02T09:13:11;18.33;;;2.97;;
27794;SDS011;15176;50.844;4.412;2022-11-02T09:15:39;16.95;;;2.85;;
27794;SDS011;15176;50.844;4.412;2022-11-02T09:18:06;16.48;;;2.70;;
27794;SDS011;15176;50.844;4.412;2022-11-02T09:20:32;18.10;;;3.42;;
27794;SDS011;15176;50.844;4.412;2022-11-02T09:22:58;13.38;;;2.28;;
27794;SDS011;15176;50.844;4.412;2022-11-02T09:25:24;17.30;;;3.05;;
27794;SDS011;15176;50.844;4.412;2022-11-02T09:27:51;13.88;;;3.20;;
27794;SDS011;15176;50.844;4.412;2022-11-02T09:30:21;15.23;;;3.10;;
27794;SDS011;15176;50.844;4.412;2022-11-02T09:32:53;19.73;;;2.88;;
27794;SDS011;15176;50.844;4.412;2022-11-02T09:35:27;12.98;;;2.97;;
27794;SDS011;15176;50.844;4.412;2022-11-02T09:37:55;12.48;;;2.85;;
27794;SDS011;15176;50.844;4.412;2022-11-02T09:40:23;15.95;;;2.78;;
27794;SDS011;15176;50.844;4.412;2022-11-02T09:45:28;14.55;;;2.92;;
27794;SDS011;15176;50.844;4.412;2022-11-02T09:48:05;16.38;;;2.53;;
27794;SDS011;15176;50.844;4.412;2022-11-02T09:53:21;15.38;;;3.08;;
27794;SDS011;15176;50.844;4.412;2022-11-02T09:55:55;13.55;;;2.85;;
27794;SDS011;15176;50.844;4.412;2022-11-02T09:58:29;16.95;;;2.75;;
27794;SDS011;15176;50.844;4.412;2022-11-02T10:12:17;11.35;;;2.90;;
27794;SDS011;15176;50.844;4.412;2022-11-02T10:14:54;14.38;;;2.90;;
27794;SDS011;15176;50.844;4.412;2022-11-02T10:17:26;11.52;;;2.67;;
27794;SDS011;15176;50.844;4.412;2022-11-02T10:19:55;14.98;;;2.97;;
27794;SDS011;15176;50.844;4.412;2022-11-02T10:22:25;13.57;;;2.97;;
27794;SDS011;15176;50.844;4.412;2022-11-02T10:24:56;12.82;;;2.42;;
27794;SDS011;15176;50.844;4.412;2022-11-02T10:27:25;16.17;;;2.65;;
27794;SDS011;15176;50.844;4.412;2022-11-02T10:32:42;12.75;;;3.00;;
27794;SDS011;15176;50.844;4.412;2022-11-02T10:35:15;14.20;;;2.50;;
27794;SDS011;15176;50.844;4.412;2022-11-02T10:41:31;11.50;;;2.40;;
27794;SDS011;15176;50.844;4.412;2022-11-02T10:48:52;13.48;;;2.75;;
27794;SDS011;15176;50.844;4.412;2022-11-02T10:51:38;15.45;;;2.40;;
27794;SDS011;15176;50.844;4.412;2022-11-02T10:54:04;11.73;;;2.45;;
27794;SDS011;15176;50.844;4.412;2022-11-02T10:56:37;16.50;;;3.20;;
27794;SDS011;15176;50.844;4.412;2022-11-02T11:04:31;14.57;;;2.45;;
27794;SDS011;15176;50.844;4.412;2022-11-02T11:07:05;11.07;;;2.88;;
27794;SDS011;15176;50.844;4.412;2022-11-02T11:09:53;15.38;;;2.60;;
27794;SDS011;15176;50.844;4.412;2022-11-02T11:12:22;15.57;;;2.70;;
27794;SDS011;15176;50.844;4.412;2022-11-02T11:14:56;12.90;;;2.28;;
27794;SDS011;15176;50.844;4.412;2022-11-02T11:17:27;14.10;;;2.40;;
27794;SDS011;15176;50.844;4.412;2022-11-02T11:19:58;16.80;;;2.75;;
27794;SDS011;15176;50.844;4.412;2022-11-02T11:22:34;17.63;;;2.88;;
27794;SDS011;15176;50.844;4.412;2022-11-02T11:27:43;15.65;;;2.60;;
27794;SDS011;15176;50.844;4.412;2022-11-02T11:32:59;12.25;;;2.10;;
27794;SDS011;15176;50.844;4.412;2022-11-02T11:35:33;11.63;;;2.33;;
27794;SDS011;15176;50.844;4.412;2022-11-02T11:38:02;15.10;;;2.65;;
27794;SDS011;15176;50.844;4.412;2022-11-02T11:40:42;12.57;;;2.22;;
27794;SDS011;15176;50.844;4.412;2022-11-02T11:43:12;14.02;;;2.08;;
27794;SDS011;15176;50.844;4.412;2022-11-02T11:45:52;13.43;;;2.42;;
27794;SDS011;15176;50.844;4.412;2022-11-02T11:50:59;16.80;;;2.45;;
27794;SDS011;15176;50.844;4.412;2022-11-02T11:53:28;17.60;;;2.67;;
27794;SDS011;15176;50.844;4.412;2022-11-02T11:55:58;12.68;;;2.30;;
27794;SDS011;15176;50.844;4.412;2022-11-02T11:58:25;13.43;;;2.97;;
27794;SDS011;15176;50.844;4.412;2022-11-02T12:03:57;13.52;;;2.20;;
27794;SDS011;15176;50.844;4.412;2022-11-02T12:06:35;13.00;;;2.55;;
27794;SDS011;15176;50.844;4.412;2022-11-02T12:26:11;13.00;;;2.30;;
27794;SDS011;15176;50.844;4.412;2022-11-02T12:28:42;11.68;;;2.58;;
27794;SDS011;15176;50.844;4.412;2022-11-02T12:34:15;8.88;;;2.05;;
27794;SDS011;15176;50.844;4.412;2022-11-02T12:36:49;11.20;;;1.92;;
27794;SDS011;15176;50.844;4.412;2022-11-02T12:40:01;5.65;;;1.30;;
27794;SDS011;15176;50.844;4.412;2022-11-02T12:42:44;8.85;;;2.13;;
27794;SDS011;15176;50.844;4.412;2022-11-02T12:54:16;10.60;;;1.90;;
27794;SDS011;15176;50.844;4.412;2022-11-02T12:56:50;12.85;;;1.58;;
27794;SDS011;15176;50.844;4.412;2022-11-02T12:59:24;11.95;;;1.95;;
27794;SDS011;15176;50.844;4.412;2022-11-02T13:05:21;10.68;;;1.80;;
27794;SDS011;15176;50.844;4.412;2022-11-02T13:07:37;13.15;;;2.55;;
27794;SDS011;15176;50.844;4.412;2022-11-02T13:10:37;11.05;;;2.60;;
27794;SDS011;15176;50.844;4.412;2022-11-02T13:13:20;12.02;;;2.20;;
27794;SDS011;15176;50.844;4.412;2022-11-02T13:15:53;11.40;;;1.70;;
27794;SDS011;15176;50.844;4.412;2022-11-02T13:18:21;11.07;;;1.60;;
27794;SDS011;15176;50.844;4.412;2022-11-02T13:20:51;10.73;;;1.85;;
27794;SDS011;15176;50.844;4.412;2022-11-02T13:26:00;8.95;;;1.88;;
27794;SDS011;15176;50.844;4.412;2022-11-02T13:28:32;11.40;;;1.80;;
27794;SDS011;15176;50.844;4.412;2022-11-02T13:31:10;11.50;;;2.08;;
27794;SDS011;15176;50.844;4.412;2022-11-02T13:33:49;9.25;;;1.98;;
27794;SDS011;15176;50.844;4.412;2022-11-02T13:36:17;8.85;;;2.10;;
27794;SDS011;15176;50.844;4.412;2022-11-02T13:38:44;15.20;;;2.10;;
27794;SDS011;15176;50.844;4.412;2022-11-02T13:50:22;11.90;;;2.15;;
27794;SDS011;15176;50.844;4.412;2022-11-02T13:52:54;7.45;;;1.58;;
27794;SDS011;15176;50.844;4.412;2022-11-02T13:55:22;13.05;;;1.77;;
27794;SDS011;15176;50.844;4.412;2022-11-02T13:58:05;9.25;;;1.80;;
27794;SDS011;15176;50.844;4.412;2022-11-02T14:01:06;10.68;;;2.10;;
27794;SDS011;15176;50.844;4.412;2022-11-02T14:03:29;11.35;;;1.77;;
27794;SDS011;15176;50.844;4.412;2022-11-02T14:06:01;8.02;;;1.33;;
27794;SDS011;15176;50.844;4.412;2022-11-02T14:08:36;9.93;;;1.65;;
27794;SDS011;15176;50.844;4.412;2022-11-02T14:14:17;10.73;;;1.98;;
27794;SDS011;15176;50.844;4.412;2022-11-02T14:29:37;14.00;;;1.77;;
27794;SDS011;15176;50.844;4.412;2022-11-02T14:34:51;6.43;;;1.15;;
27794;SDS011;15176;50.844;4.412;2022-11-02T14:37:43;7.20;;;1.52;;
27794;SDS011;15176;50.844;4.412;2022-11-02T14:40:28;7.88;;;1.80;;
27794;SDS011;15176;50.844;4.412;2022-11-02T14:48:27;9.68;;;1.80;;
27794;SDS011;15176;50.844;4.412;2022-11-02T14:51:27;13.80;;;1.83;;
27794;SDS011;15176;50.844;4.412;2022-11-02T14:53:59;8.52;;;1.73;;
27794;SDS011;15176;50.844;4.412;2022-11-02T15:01:55;9.88;;;1.55;;
27794;SDS011;15176;50.844;4.412;2022-11-02T15:04:26;9.07;;;1.65;;
27794;SDS011;15176;50.844;4.412;2022-11-02T15:06:54;6.18;;;1.20;;
27794;SDS011;15176;50.844;4.412;2022-11-02T15:12:37;6.32;;;1.50;;
27794;SDS011;15176;50.844;4.412;2022-11-02T15:23:39;10.27;;;1.70;;
27794;SDS011;15176;50.844;4.412;2022-11-02T15:31:46;10.73;;;2.17;;
27794;SDS011;15176;50.844;4.412;2022-11-02T15:34:19;8.95;;;1.63;;
27794;SDS011;15176;50.844;4.412;2022-11-02T15:36:52;11.02;;;1.85;;
27794;SDS011;15176;50.844;4.412;2022-11-02T15:39:20;7.82;;;1.77;;
27794;SDS011;15176;50.844;4.412;2022-11-02T15:41:50;11.63;;;1.70;;
27794;SDS011;15176;50.844;4.412;2022-11-02T15:47:34;7.70;;;1.92;;
27794;SDS011;15176;50.844;4.412;2022-11-02T15:50:18;9.75;;;1.95;;
27794;SDS011;15176;50.844;4.412;2022-11-02T15:56:09;7.25;;;1.33;;
27794;SDS011;15176;50.844;4.412;2022-11-02T16:01:25;9.30;;;1.75;;
27794;SDS011;15176;50.844;4.412;2022-11-02T16:03:55;7.82;;;1.45;;
27794;SDS011;15176;50.844;4.412;2022-11-02T16:06:27;11.77;;;1.92;;
27794;SDS011;15176;50.844;4.412;2022-11-02T16:09:03;9.55;;;1.50;;
27794;SDS011;15176;50.844;4.412;2022-11-02T16:12:00;7.15;;;1.45;;
27794;SDS011;15176;50.844;4.412;2022-11-02T16:14:32;7.63;;;1.25;;
27794;SDS011;15176;50.844;4.412;2022-11-02T16:16:57;8.52;;;1.40;;
27794;SDS011;15176;50.844;4.412;2022-11-02T16:19:26;9.32;;;2.03;;
27794;SDS011;15176;50.844;4.412;2022-11-02T16:21:52;7.90;;;1.70;;
27794;SDS011;15176;50.844;4.412;2022-11-02T16:24:18;8.73;;;1.52;;
27794;SDS011;15176;50.844;4.412;2022-11-02T16:26:44;8.68;;;1.85;;
27794;SDS011;15176;50.844;4.412;2022-11-02T16:29:18;9.48;;;1.92;;
27794;SDS011;15176;50.844;4.412;2022-11-02T16:31:50;8.73;;;2.08;;
27794;SDS011;15176;50.844;4.412;2022-11-02T16:34:24;11.02;;;1.98;;
27794;SDS011;15176;50.844;4.412;2022-11-02T16:36:53;6.43;;;1.40;;
27794;SDS011;15176;50.844;4.412;2022-11-02T16:39:20;9.57;;;1.80;;
27794;SDS011;15176;50.844;4.412;2022-11-02T16:41:51;12.15;;;1.70;;
27794;SDS011;15176;50.844;4.412;2022-11-02T16:44:30;8.18;;;1.60;;
27794;SDS011;15176;50.844;4.412;2022-11-02T16:49:26;10.43;;;1.70;;
27794;SDS011;15176;50.844;4.412;2022-11-02T16:56:54;14.20;;;2.15;;
27794;SDS011;15176;50.844;4.412;2022-11-02T16:59:28;11.73;;;2.10;;
27794;SDS011;15176;50.844;4.412;2022-11-02T17:02:04;15.95;;;2.03;;
27794;SDS011;15176;50.844;4.412;2022-11-02T17:04:37;10.52;;;1.95;;
27794;SDS011;15176;50.844;4.412;2022-11-02T17:09:43;11.18;;;1.77;;
27794;SDS011;15176;50.844;4.412;2022-11-02T17:12:16;11.43;;;1.80;;
27794;SDS011;15176;50.844;4.412;2022-11-02T17:14:44;12.90;;;1.83;;
27794;SDS011;15176;50.844;4.412;2022-11-02T17:19:53;12.70;;;2.22;;
27794;SDS011;15176;50.844;4.412;2022-11-02T17:24:45;11.70;;;2.38;;
27794;SDS011;15176;50.844;4.412;2022-11-02T17:27:15;13.55;;;1.83;;
27794;SDS011;15176;50.844;4.412;2022-11-02T17:29:48;13.15;;;1.83;;
27794;SDS011;15176;50.844;4.412;2022-11-02T17:32:14;12.02;;;2.00;;
27794;SDS011;15176;50.844;4.412;2022-11-02T17:34:51;11.00;;;2.25;;
27794;SDS011;15176;50.844;4.412;2022-11-02T17:37:22;12.75;;;2.47;;
27794;SDS011;15176;50.844;4.412;2022-11-02T17:39:50;11.98;;;2.53;;
27794;SDS011;15176;50.844;4.412;2022-11-02T17:42:16;11.00;;;2.30;;
27794;SDS011;15176;50.844;4.412;2022-11-02T17:47:45;12.82;;;2.58;;
27794;SDS011;15176;50.844;4.412;2022-11-02T17:50:11;11.73;;;2.25;;
27794;SDS011;15176;50.844;4.412;2022-11-02T17:52:37;17.60;;;2.38;;
27794;SDS011;15176;50.844;4.412;2022-11-02T17:55:08;15.15;;;2.53;;
27794;SDS011;15176;50.844;4.412;2022-11-02T17:57:43;10.57;;;2.28;;
27794;SDS011;15176;50.844;4.412;2022-11-02T18:00:10;9.85;;;2.40;;
27794;SDS011;15176;50.844;4.412;2022-11-02T18:02:40;11.02;;;2.20;;
27794;SDS011;15176;50.844;4.412;2022-11-02T18:05:29;9.10;;;1.90;;
27794;SDS011;15176;50.844;4.412;2022-11-02T18:07:55;15.90;;;2.33;;
27794;SDS011;15176;50.844;4.412;2022-11-02T18:10:23;11.68;;;2.55;;
27794;SDS011;15176;50.844;4.412;2022-11-02T18:12:51;10.30;;;1.90;;
27794;SDS011;15176;50.844;4.412;2022-11-02T18:15:21;18.77;;;2.75;;
27794;SDS011;15176;50.844;4.412;2022-11-02T18:17:49;10.65;;;2.28;;